createdAt,value
2018-12-19T00:00:20.466Z,14.17
2018-12-19T00:02:49.188Z,13.93
2018-12-19T00:05:18.573Z,14.23
2018-12-19T00:07:47.379Z,13.60
2018-12-19T00:10:16.417Z,13.67
2018-12-19T00:12:45.493Z,13.47
2018-12-19T00:15:14.746Z,12.90
2018-12-19T00:17:43.740Z,12.97
2018-12-19T00:20:12.879Z,12.73
2018-12-19T00:22:41.944Z,13.33
2018-12-19T00:25:11.130Z,12.87
2018-12-19T00:27:40.252Z,13.17
2018-12-19T00:30:09.376Z,12.60
2018-12-19T00:32:38.469Z,12.63
2018-12-19T00:35:07.269Z,12.20
2018-12-19T00:37:36.458Z,12.33
2018-12-19T00:40:05.545Z,11.90
2018-12-19T00:42:34.634Z,12.23
2018-12-19T00:45:03.593Z,12.27
2018-12-19T00:47:32.665Z,11.93
2018-12-19T00:50:01.874Z,11.97
2018-12-19T00:52:30.625Z,12.40
2018-12-19T00:54:59.834Z,11.80
2018-12-19T00:57:28.846Z,12.03
2018-12-19T00:59:57.474Z,10.97
2018-12-19T01:02:26.521Z,10.50
2018-12-19T01:04:55.443Z,11.07
2018-12-19T01:07:24.613Z,11.50
2018-12-19T01:09:53.524Z,12.17
2018-12-19T01:12:22.537Z,11.60
2018-12-19T01:14:51.485Z,10.97
2018-12-19T01:17:20.587Z,10.70
2018-12-19T01:19:49.342Z,11.33
2018-12-19T01:22:18.357Z,11.30
2018-12-19T01:24:47.386Z,10.97
2018-12-19T01:27:16.548Z,11.10
2018-12-19T01:29:45.601Z,10.43
2018-12-19T01:32:14.355Z,10.67
2018-12-19T01:34:43.482Z,9.77
2018-12-19T01:37:12.320Z,10.03
2018-12-19T01:39:41.358Z,9.77
2018-12-19T01:42:10.422Z,9.83
2018-12-19T01:44:39.389Z,9.60
2018-12-19T01:47:08.483Z,9.10
2018-12-19T01:49:37.548Z,9.87
2018-12-19T01:52:06.719Z,9.00
2018-12-19T01:54:35.537Z,8.77
2018-12-19T01:57:04.486Z,9.80
2018-12-19T01:59:33.634Z,9.60
2018-12-19T02:02:02.555Z,9.63
2018-12-19T02:04:31.403Z,9.03
2018-12-19T02:07:00.544Z,8.93
2018-12-19T02:09:29.240Z,9.43
2018-12-19T02:11:58.053Z,9.33
2018-12-19T02:14:27.086Z,8.97
2018-12-19T02:16:56.071Z,8.67
2018-12-19T02:19:25.077Z,9.50
2018-12-19T02:21:54.066Z,8.83
2018-12-19T02:24:23.092Z,9.23
2018-12-19T02:26:52.150Z,9.37
2018-12-19T02:29:21.227Z,8.97
2018-12-19T02:31:50.205Z,9.13
2018-12-19T02:34:19.237Z,9.53
2018-12-19T02:36:48.127Z,9.40
2018-12-19T02:39:17.317Z,8.53
2018-12-19T02:41:46.094Z,9.00
2018-12-19T02:44:15.014Z,8.03
2018-12-19T02:46:43.707Z,9.63
2018-12-19T02:49:12.699Z,8.70
2018-12-19T02:51:41.871Z,8.63
2018-12-19T02:54:10.892Z,9.67
2018-12-19T02:56:39.753Z,9.27
2018-12-19T02:59:08.887Z,9.30
2018-12-19T03:01:37.637Z,10.23
2018-12-19T03:04:06.605Z,9.50
2018-12-19T03:06:35.659Z,9.43
2018-12-19T03:09:06.926Z,10.17
2018-12-19T03:11:35.771Z,10.07
2018-12-19T03:14:04.933Z,10.07
2018-12-19T03:16:34.046Z,9.47
2018-12-19T03:19:03.003Z,9.50
2018-12-19T03:21:32.026Z,9.53
2018-12-19T03:24:00.924Z,9.87
2018-12-19T03:26:29.965Z,9.83
2018-12-19T03:28:58.893Z,9.13
2018-12-19T03:31:27.901Z,9.43
2018-12-19T03:33:56.765Z,9.07
2018-12-19T03:36:25.924Z,9.63
2018-12-19T03:38:55.076Z,8.90
2018-12-19T03:41:24.244Z,9.30
2018-12-19T03:43:53.226Z,9.80
2018-12-19T03:46:22.299Z,8.67
2018-12-19T03:48:57.990Z,9.43
2018-12-19T03:51:27.016Z,9.40
2018-12-19T03:53:55.923Z,9.57
2018-12-19T03:56:24.682Z,8.93
2018-12-19T03:58:53.835Z,8.80
2018-12-19T04:01:22.917Z,9.77
2018-12-19T04:03:51.718Z,9.67
2018-12-19T04:06:20.799Z,9.57
2018-12-19T04:08:49.852Z,9.03
2018-12-19T04:11:19.047Z,9.87
2018-12-19T04:13:47.801Z,8.83
2018-12-19T04:16:16.621Z,10.63
2018-12-19T04:18:45.534Z,8.77
2018-12-19T04:21:14.661Z,9.60
2018-12-19T04:23:43.844Z,9.73
2018-12-19T04:26:13.000Z,10.37
2018-12-19T04:28:42.109Z,11.77
2018-12-19T04:31:10.891Z,10.77
2018-12-19T04:33:39.973Z,10.23
2018-12-19T04:36:08.934Z,10.97
2018-12-19T04:38:38.232Z,9.63
2018-12-19T04:41:06.928Z,9.90
2018-12-19T04:43:35.931Z,9.03
2018-12-19T04:46:04.848Z,10.20
2018-12-19T04:48:33.749Z,10.50
2018-12-19T04:51:02.745Z,10.67
2018-12-19T04:53:31.897Z,10.27
2018-12-19T04:56:00.819Z,9.80
2018-12-19T04:58:29.800Z,10.63
2018-12-19T05:00:58.885Z,10.40
2018-12-19T05:03:27.924Z,10.63
2018-12-19T05:05:57.125Z,9.37
2018-12-19T05:08:26.194Z,10.73
2018-12-19T05:10:55.288Z,9.73
2018-12-19T05:13:24.171Z,9.33
2018-12-19T05:15:53.131Z,8.13
2018-12-19T05:18:22.164Z,8.77
2018-12-19T05:20:51.301Z,8.80
2018-12-19T05:23:20.435Z,9.97
2018-12-19T05:25:49.207Z,9.43
2018-12-19T05:28:18.039Z,9.70
2018-12-19T05:30:47.111Z,10.13
2018-12-19T05:33:16.247Z,13.87
2018-12-19T05:35:45.295Z,12.97
2018-12-19T05:38:14.287Z,11.27
2018-12-19T05:40:43.340Z,12.93
2018-12-19T05:43:12.191Z,11.37
2018-12-19T05:45:41.319Z,11.13
2018-12-19T05:48:10.379Z,9.73
2018-12-19T05:50:39.346Z,10.30
2018-12-19T05:53:08.384Z,10.30
2018-12-19T05:55:37.296Z,9.37
2018-12-19T05:58:06.485Z,9.37
2018-12-19T06:00:35.833Z,9.80
2018-12-19T06:03:04.643Z,12.57
2018-12-19T06:05:33.443Z,28.53
2018-12-19T06:08:02.562Z,21.83
2018-12-19T06:10:31.311Z,23.63
2018-12-19T06:13:00.409Z,14.00
2018-12-19T06:15:29.482Z,29.70
2018-12-19T06:17:58.383Z,13.50
2018-12-19T06:20:27.349Z,23.17
2018-12-19T06:22:56.386Z,16.83
2018-12-19T06:25:25.360Z,19.07
2018-12-19T06:27:54.688Z,21.63
2018-12-19T06:30:23.882Z,15.17
2018-12-19T06:32:53.163Z,10.07
2018-12-19T06:35:22.166Z,8.70
2018-12-19T06:37:50.854Z,9.17
2018-12-19T06:40:19.840Z,8.43
2018-12-19T06:42:49.009Z,9.00
2018-12-19T06:45:17.895Z,10.80
2018-12-19T06:47:47.171Z,9.50
2018-12-19T06:50:16.209Z,10.27
2018-12-19T06:52:45.182Z,10.80
2018-12-19T06:55:13.957Z,11.63
2018-12-19T06:57:43.010Z,11.53
2018-12-19T07:00:11.961Z,11.73
2018-12-19T07:02:41.086Z,11.00
2018-12-19T07:05:10.072Z,9.70
2018-12-19T07:07:39.192Z,9.77
2018-12-19T07:10:08.522Z,10.90
2018-12-19T07:12:37.444Z,11.07
2018-12-19T07:15:06.672Z,10.70
2018-12-19T07:17:35.824Z,13.40
2018-12-19T07:20:04.874Z,17.70
2018-12-19T07:22:33.921Z,13.80
2018-12-19T07:25:02.800Z,12.37
2018-12-19T07:27:31.940Z,17.40
2018-12-19T07:30:00.629Z,12.53
2018-12-19T07:32:29.762Z,11.23
2018-12-19T07:34:58.507Z,18.07
2018-12-19T07:37:27.625Z,17.20
2018-12-19T07:39:56.429Z,17.13
2018-12-19T07:42:25.467Z,13.97
2018-12-19T07:44:54.165Z,12.27
2018-12-19T07:47:23.220Z,15.13
2018-12-19T07:49:52.015Z,21.17
2018-12-19T07:52:21.092Z,12.90
2018-12-19T07:54:50.277Z,13.57
2018-12-19T07:57:19.387Z,9.57
2018-12-19T07:59:48.375Z,10.00
2018-12-19T08:02:17.539Z,116.80
2018-12-19T08:04:46.778Z,31.10
2018-12-19T08:07:15.961Z,39.67
2018-12-19T08:09:45.072Z,20.37
2018-12-19T08:12:13.985Z,11.47
2018-12-19T08:14:42.967Z,13.47
2018-12-19T08:17:11.828Z,11.40
2018-12-19T08:19:40.873Z,12.57
2018-12-19T08:22:09.926Z,11.03
2018-12-19T08:24:38.857Z,9.73
2018-12-19T08:27:07.770Z,11.87
2018-12-19T08:29:36.909Z,10.40
2018-12-19T08:32:05.862Z,9.87
2018-12-19T08:34:34.819Z,10.70
2018-12-19T08:37:03.924Z,12.70
2018-12-19T08:39:32.858Z,12.53
2018-12-19T08:42:01.912Z,9.57
2018-12-19T08:44:38.379Z,10.60
2018-12-19T08:47:07.688Z,9.17
2018-12-19T08:49:36.866Z,9.43
2018-12-19T08:52:06.075Z,11.77
2018-12-19T08:54:35.014Z,11.63
2018-12-19T08:57:03.757Z,17.63
2018-12-19T08:59:32.756Z,31.50
2018-12-19T09:02:01.685Z,14.67
2018-12-19T09:04:30.512Z,19.07
2018-12-19T09:06:59.193Z,11.50
2018-12-19T09:09:28.250Z,9.20
2018-12-19T09:11:57.060Z,12.87
2018-12-19T09:14:26.039Z,12.43
2018-12-19T09:16:55.235Z,10.00
2018-12-19T09:19:24.162Z,10.93
2018-12-19T09:21:53.256Z,9.60
2018-12-19T09:24:22.311Z,8.63
2018-12-19T09:26:51.340Z,8.17
2018-12-19T09:29:20.409Z,9.37
2018-12-19T09:31:49.680Z,9.50
2018-12-19T09:34:18.625Z,10.13
2018-12-19T09:36:47.670Z,9.13
2018-12-19T09:39:16.682Z,10.90
2018-12-19T09:41:45.596Z,10.20
2018-12-19T09:44:14.662Z,10.07
2018-12-19T09:46:43.792Z,9.43
2018-12-19T09:49:13.932Z,8.37
2018-12-19T09:51:42.930Z,9.10
2018-12-19T09:54:11.839Z,9.73
2018-12-19T09:56:40.948Z,9.13
2018-12-19T09:59:09.871Z,10.67
2018-12-19T10:01:38.780Z,9.77
2018-12-19T10:04:07.816Z,11.80
2018-12-19T10:06:36.875Z,11.20
2018-12-19T10:09:14.528Z,11.03
2018-12-19T10:11:39.118Z,10.00
2018-12-19T10:14:08.136Z,10.40
2018-12-19T10:16:37.171Z,10.10
2018-12-19T10:19:05.899Z,10.27
2018-12-19T10:21:35.220Z,9.07
2018-12-19T10:24:04.386Z,13.63
2018-12-19T10:26:33.262Z,10.77
2018-12-19T10:29:02.265Z,12.40
2018-12-19T10:31:31.389Z,15.90
2018-12-19T10:34:00.337Z,16.07
2018-12-19T10:36:34.553Z,17.03
2018-12-19T10:39:03.997Z,10.50
2018-12-19T10:41:32.933Z,13.57
2018-12-19T10:44:01.937Z,11.73
2018-12-19T10:46:31.112Z,10.93
2018-12-19T10:49:00.134Z,12.10
2018-12-19T10:51:29.269Z,12.43
2018-12-19T10:53:58.290Z,12.27
2018-12-19T10:56:27.311Z,12.10
2018-12-19T10:58:56.106Z,12.97
2018-12-19T11:01:25.302Z,12.60
2018-12-19T11:03:54.301Z,12.50
2018-12-19T11:06:23.383Z,13.30
2018-12-19T11:08:52.376Z,13.93
2018-12-19T11:11:21.207Z,11.67
2018-12-19T11:13:50.134Z,31.17
2018-12-19T11:16:19.351Z,16.03
2018-12-19T11:18:48.351Z,22.13
2018-12-19T11:21:17.444Z,17.70
2018-12-19T11:23:46.463Z,16.37
2018-12-19T11:26:15.173Z,11.93
2018-12-19T11:28:44.045Z,11.97
2018-12-19T11:31:13.001Z,13.13
2018-12-19T11:33:41.957Z,16.70
2018-12-19T11:36:11.029Z,13.40
2018-12-19T11:38:40.185Z,12.57
2018-12-19T11:41:08.968Z,10.90
2018-12-19T11:43:37.868Z,12.67
2018-12-19T11:46:06.884Z,12.20
2018-12-19T11:48:35.740Z,11.00
2018-12-19T11:51:05.046Z,13.33
2018-12-19T11:53:34.684Z,25.33
2018-12-19T11:56:03.836Z,27.33
2018-12-19T11:58:33.626Z,36.53
2018-12-19T12:01:02.589Z,30.73
2018-12-19T12:03:31.638Z,19.97
2018-12-19T12:06:00.640Z,13.33
2018-12-19T12:08:29.618Z,14.43
2018-12-19T12:10:58.534Z,13.27
2018-12-19T12:13:27.724Z,23.87
2018-12-19T12:15:56.852Z,19.87
2018-12-19T12:18:25.949Z,13.33
2018-12-19T12:20:54.960Z,15.63
2018-12-19T12:23:23.933Z,14.60
2018-12-19T12:25:53.089Z,14.87
2018-12-19T12:28:22.146Z,15.50
2018-12-19T12:30:51.070Z,21.63
2018-12-19T12:33:20.259Z,18.07
2018-12-19T12:35:49.641Z,20.37
2018-12-19T12:38:18.620Z,19.97
2018-12-19T12:40:47.772Z,18.63
2018-12-19T12:43:16.702Z,16.87
2018-12-19T12:45:45.785Z,15.03
2018-12-19T12:48:14.843Z,16.17
2018-12-19T12:50:43.941Z,13.67
2018-12-19T12:53:12.598Z,15.33
2018-12-19T12:55:41.483Z,13.57
2018-12-19T12:58:10.267Z,13.40
2018-12-19T13:00:39.279Z,13.40
2018-12-19T13:03:08.336Z,12.57
2018-12-19T13:05:37.330Z,12.53
2018-12-19T13:08:06.462Z,13.33
2018-12-19T13:10:36.353Z,12.07
2018-12-19T13:13:05.395Z,17.07
2018-12-19T13:15:44.211Z,17.33
2018-12-19T13:18:14.673Z,15.57
2018-12-19T13:20:43.740Z,14.97
2018-12-19T13:23:12.805Z,13.40
2018-12-19T13:25:41.915Z,12.60
2018-12-19T13:28:11.201Z,13.50
2018-12-19T13:30:40.301Z,12.43
2018-12-19T13:33:09.205Z,12.77
2018-12-19T13:35:38.196Z,17.83
2018-12-19T13:38:07.264Z,15.80
2018-12-19T13:40:36.162Z,12.77
2018-12-19T13:43:05.009Z,15.03
2018-12-19T13:45:33.765Z,15.50
2018-12-19T13:48:02.839Z,14.13
2018-12-19T13:50:31.933Z,14.70
2018-12-19T13:53:00.826Z,16.37
2018-12-19T13:55:30.998Z,15.00
2018-12-19T13:58:00.089Z,18.47
2018-12-19T14:00:28.933Z,18.00
2018-12-19T14:02:58.556Z,22.53
2018-12-19T14:05:27.500Z,15.77
2018-12-19T14:07:56.443Z,15.73
2018-12-19T14:10:25.422Z,19.73
2018-12-19T14:12:54.416Z,25.17
2018-12-19T14:15:23.518Z,23.07
2018-12-19T14:17:52.584Z,27.30
2018-12-19T14:20:21.677Z,36.87
2018-12-19T14:22:50.814Z,35.43
2018-12-19T14:25:19.699Z,31.20
2018-12-19T14:27:48.396Z,28.13
2018-12-19T14:30:17.439Z,28.93
2018-12-19T14:32:46.411Z,25.07
2018-12-19T14:35:15.283Z,36.03
2018-12-19T14:37:44.303Z,23.77
2018-12-19T14:40:13.356Z,19.13
2018-12-19T14:42:42.387Z,18.63
2018-12-19T14:45:11.271Z,27.00
2018-12-19T14:47:40.531Z,18.37
2018-12-19T14:50:09.696Z,31.73
2018-12-19T14:52:38.768Z,28.77
2018-12-19T14:55:07.939Z,21.93
2018-12-19T14:57:36.976Z,26.90
2018-12-19T15:00:07.252Z,28.33
2018-12-19T15:02:36.000Z,35.13
2018-12-19T15:05:05.384Z,21.53
2018-12-19T15:07:34.516Z,21.83
2018-12-19T15:10:03.874Z,19.10
2018-12-19T15:12:32.892Z,20.83
2018-12-19T15:15:01.762Z,17.10
2018-12-19T15:17:30.454Z,20.37
2018-12-19T15:19:59.375Z,14.70
2018-12-19T15:22:28.471Z,18.57
2018-12-19T15:24:57.658Z,19.17
2018-12-19T15:27:26.721Z,17.30
2018-12-19T15:29:55.722Z,26.63
2018-12-19T15:32:24.496Z,24.93
2018-12-19T15:34:53.521Z,29.77
2018-12-19T15:37:22.537Z,25.33
2018-12-19T15:39:51.524Z,56.67
2018-12-19T15:42:20.553Z,23.77
2018-12-19T15:44:49.808Z,32.40
2018-12-19T15:47:18.669Z,33.40
2018-12-19T15:49:47.850Z,15.87
2018-12-19T15:52:16.895Z,15.77
2018-12-19T15:54:45.896Z,25.13
2018-12-19T15:57:14.932Z,36.53
2018-12-19T15:59:44.060Z,58.73
2018-12-19T16:02:13.133Z,81.10
2018-12-19T16:44:38.807Z,18.33
2018-12-19T16:47:07.629Z,19.50
2018-12-19T16:49:36.557Z,19.47
2018-12-19T16:52:05.332Z,23.37
2018-12-19T16:54:34.123Z,19.07
2018-12-19T16:57:02.864Z,17.97
2018-12-19T16:59:31.688Z,17.63
2018-12-19T17:02:00.489Z,17.37
2018-12-19T17:04:29.252Z,17.17
2018-12-19T17:06:58.003Z,18.20
2018-12-19T17:09:26.726Z,16.33
2018-12-19T17:11:55.455Z,17.63
2018-12-19T17:14:24.171Z,18.00
2018-12-19T17:16:52.915Z,17.73
2018-12-19T17:19:21.668Z,17.77
2018-12-19T17:21:50.474Z,18.67
2018-12-19T17:24:21.158Z,19.83
2018-12-19T17:26:50.004Z,19.73
2018-12-19T17:29:18.784Z,20.03
2018-12-19T17:31:47.862Z,20.30
2018-12-19T17:34:16.666Z,19.17
2018-12-19T17:36:45.452Z,18.67
2018-12-19T17:39:14.329Z,17.40
2018-12-19T17:41:42.976Z,17.60
2018-12-19T17:44:11.755Z,20.40
2018-12-19T17:46:40.544Z,21.47
2018-12-19T17:49:09.492Z,80.80
2018-12-19T17:51:38.209Z,27.40
2018-12-19T17:54:07.023Z,18.80
2018-12-19T17:56:35.778Z,19.47
2018-12-19T17:59:04.607Z,18.30
2018-12-19T18:01:33.432Z,17.53
2018-12-19T18:12:38.553Z,18.60
2018-12-19T18:15:07.894Z,19.70
2018-12-19T18:17:36.831Z,18.90
2018-12-19T18:20:06.313Z,17.63
2018-12-19T18:22:35.114Z,17.33
2018-12-19T18:27:54.325Z,17.30
2018-12-19T18:30:23.013Z,17.70
2018-12-19T18:35:31.296Z,17.03
2018-12-19T18:38:00.000Z,18.30
2018-12-19T19:21:27.201Z,20.57
2018-12-19T19:23:56.097Z,18.90
2018-12-19T19:26:24.831Z,19.80
2018-12-19T19:28:53.481Z,21.17
2018-12-19T19:31:22.396Z,20.93
2018-12-19T19:33:51.196Z,24.70
2018-12-19T19:36:19.917Z,27.70
2018-12-19T19:38:48.742Z,25.03
2018-12-19T19:41:17.570Z,24.07
2018-12-19T19:43:46.378Z,20.30
2018-12-19T19:46:15.072Z,19.27
2018-12-19T19:48:44.023Z,18.93
2018-12-19T19:51:16.894Z,22.70
2018-12-19T19:53:43.481Z,21.00
2018-12-19T19:56:12.167Z,21.53
2018-12-19T19:58:40.952Z,22.17
2018-12-19T20:01:09.709Z,21.47
2018-12-19T20:03:38.529Z,21.20
2018-12-19T20:06:07.316Z,21.43
2018-12-19T20:08:36.111Z,21.97
2018-12-19T20:11:04.897Z,19.63
2018-12-19T20:13:33.654Z,19.90
2018-12-19T20:16:02.575Z,21.13
2018-12-19T20:18:31.425Z,22.10
2018-12-19T20:21:00.217Z,20.33
2018-12-19T20:23:28.856Z,20.13
2018-12-19T20:25:57.600Z,22.77
2018-12-19T20:28:26.432Z,29.60
2018-12-19T20:30:55.210Z,28.23
2018-12-19T20:33:23.954Z,22.70
2018-12-19T20:35:52.708Z,24.83
2018-12-19T20:38:21.485Z,31.70
2018-12-19T20:40:50.161Z,26.37
2018-12-19T20:43:18.976Z,23.03
2018-12-19T20:45:47.792Z,26.80
2018-12-19T20:48:16.684Z,24.13
2018-12-19T20:50:45.400Z,26.77
2018-12-19T20:53:14.173Z,25.70
2018-12-19T20:55:42.893Z,31.53
2018-12-19T20:58:11.711Z,55.57
2018-12-19T21:00:40.476Z,24.70
2018-12-19T21:03:09.128Z,22.43
2018-12-19T21:05:37.887Z,24.00
2018-12-19T21:08:06.600Z,22.57
2018-12-19T21:13:25.369Z,24.50
2018-12-19T21:15:54.299Z,23.40
2018-12-19T21:18:28.267Z,23.13
2018-12-19T21:20:57.894Z,24.17
2018-12-19T21:54:50.866Z,33.40
2018-12-19T21:57:19.774Z,27.20
2018-12-19T21:59:48.598Z,29.10
2018-12-19T22:02:17.461Z,28.13
2018-12-19T22:04:46.196Z,26.03
2018-12-19T22:07:14.990Z,25.23
2018-12-19T22:09:43.812Z,24.97
2018-12-19T22:12:15.452Z,25.27
2018-12-19T22:14:44.250Z,23.23
2018-12-19T22:17:54.660Z,24.40
2018-12-19T22:20:23.406Z,27.70
2018-12-19T22:22:52.392Z,25.43
2018-12-19T22:25:21.166Z,25.50
2018-12-19T22:27:50.075Z,28.30
2018-12-19T22:30:18.921Z,26.57
2018-12-19T22:32:47.740Z,29.33
2018-12-19T22:35:16.542Z,29.63
2018-12-19T22:37:45.257Z,30.97
2018-12-19T22:40:14.013Z,26.57
2018-12-19T22:42:42.736Z,24.37
2018-12-19T22:45:11.542Z,24.43
2018-12-19T22:47:40.293Z,24.90
2018-12-19T22:50:09.033Z,25.70
2018-12-19T22:52:37.794Z,27.53
2018-12-19T22:55:06.679Z,25.63
2018-12-19T22:57:35.691Z,29.50
2018-12-19T23:00:07.529Z,27.67
2018-12-19T23:03:07.101Z,25.73
2018-12-19T23:05:55.003Z,30.70
2018-12-19T23:08:23.871Z,29.27
2018-12-19T23:10:52.609Z,28.63
2018-12-19T23:13:21.488Z,28.27
2018-12-19T23:15:50.369Z,30.10
2018-12-19T23:18:24.429Z,28.00
2018-12-19T23:20:53.203Z,27.67
2018-12-19T23:23:22.000Z,31.53
2018-12-19T23:25:50.695Z,33.10
2018-12-19T23:28:19.389Z,37.97
2018-12-19T23:30:48.251Z,32.17
2018-12-19T23:33:16.960Z,35.10
2018-12-19T23:35:45.689Z,32.17
2018-12-19T23:38:14.734Z,45.13
2018-12-19T23:40:43.549Z,33.83
2018-12-19T23:43:12.215Z,28.10
2018-12-19T23:45:41.013Z,39.50
2018-12-19T23:48:09.855Z,35.37
2018-12-19T23:50:38.867Z,29.97
2018-12-19T23:53:07.678Z,32.40
2018-12-19T23:55:36.479Z,32.97
2018-12-19T23:58:05.287Z,29.53
